Time;durP1;ratioP1;P1;durP2;ratioP2;P2;SDS_P1;SDS_P2;PMS_P1;PMS_P2;Temp;Humidity;BMP_temperature;BMP_pressure;BME280_temperature;BME280_humidity;BME280_pressure;Samples;Min_cycle;Max_cycle;Signal;HPM_P1;HPM_P2
2023/05/01 03:00:45;;;;;;;11.23;10.33;;;8.70;99.90;;;;;;5809757;23;20319;-77
2023/05/01 03:03:11;;;;;;;12.57;11.50;;;8.70;99.90;;;;;;4996081;28;20253;-78
2023/05/01 03:05:38;;;;;;;9.97;9.07;;;8.70;99.90;;;;;;4990801;28;20228;-78
2023/05/01 03:08:05;;;;;;;11.77;10.73;;;8.70;99.90;;;;;;4980271;28;20189;-78
2023/05/01 03:10:30;;;;;;;12.47;11.57;;;8.80;99.90;;;;;;4989853;28;20181;-77
2023/05/01 03:12:56;;;;;;;13.67;10.50;;;8.70;99.90;;;;;;4981431;28;20195;-78
2023/05/01 03:15:22;;;;;;;11.23;10.13;;;8.80;99.90;;;;;;5008236;23;20584;-81
2023/05/01 03:17:48;;;;;;;12.47;11.43;;;8.80;99.90;;;;;;5001742;28;20224;-80
2023/05/01 03:20:14;;;;;;;12.07;11.17;;;8.80;99.90;;;;;;5006360;28;20554;-80
2023/05/01 03:22:40;;;;;;;12.20;11.20;;;8.80;99.90;;;;;;5011312;28;20184;-79
2023/05/01 03:25:08;;;;;;;18.00;16.80;;;8.80;99.90;;;;;;5010458;28;20187;-79
2023/05/01 03:27:34;;;;;;;20.63;19.13;;;8.80;99.90;;;;;;5017363;28;20197;-78
2023/05/01 03:29:59;;;;;;;21.63;20.13;;;8.90;99.90;;;;;;5017184;28;20177;-80
2023/05/01 03:32:27;;;;;;;23.80;21.87;;;8.90;99.90;;;;;;5005870;28;20195;-81
2023/05/01 03:34:53;;;;;;;25.53;23.87;;;8.90;99.90;;;;;;5004570;28;20215;-79
2023/05/01 03:37:19;;;;;;;16.70;15.23;;;8.90;99.90;;;;;;5003694;28;20208;-80
2023/05/01 03:39:45;;;;;;;17.67;16.17;;;8.90;99.90;;;;;;5003185;28;20188;-80
2023/05/01 03:42:11;;;;;;;22.03;20.63;;;9.00;99.90;;;;;;5001318;28;20185;-80
2023/05/01 03:44:36;;;;;;;21.77;19.87;;;9.00;99.90;;;;;;4997854;28;20260;-79
2023/05/01 03:47:02;;;;;;;22.73;21.10;;;9.00;99.90;;;;;;4983752;28;20284;-81
2023/05/01 03:49:28;;;;;;;22.47;21.03;;;9.00;99.90;;;;;;4982909;28;20181;-80
2023/05/01 03:51:54;;;;;;;22.07;20.70;;;9.10;99.90;;;;;;4994208;28;20169;-79
2023/05/01 03:54:20;;;;;;;21.83;20.23;;;9.10;99.90;;;;;;4993485;28;20184;-79
2023/05/01 03:56:46;;;;;;;21.77;20.30;;;9.10;99.90;;;;;;5008018;28;20674;-80
2023/05/01 03:59:13;;;;;;;20.20;18.90;;;9.10;99.90;;;;;;5003708;28;20192;-79
2023/05/01 04:01:39;;;;;;;22.37;21.03;;;9.00;99.90;;;;;;5006070;28;20187;-79
2023/05/01 04:04:08;;;;;;;21.07;19.70;;;9.00;99.90;;;;;;5002631;28;20204;-79
2023/05/01 04:06:34;;;;;;;21.73;20.37;;;9.10;99.90;;;;;;5008179;28;20208;-80
2023/05/01 04:09:00;;;;;;;22.40;20.80;;;9.10;99.90;;;;;;5025526;28;20204;-79
2023/05/01 04:11:26;;;;;;;22.87;21.27;;;9.10;99.90;;;;;;5026664;28;20183;-80
2023/05/01 04:13:52;;;;;;;22.33;20.80;;;9.10;99.90;;;;;;5006625;28;20180;-78
2023/05/01 04:16:17;;;;;;;16.73;15.33;;;9.20;99.90;;;;;;5006437;28;20284;-81
2023/05/01 04:18:43;;;;;;;14.73;13.33;;;9.10;99.90;;;;;;5005262;28;20215;-80
2023/05/01 04:21:09;;;;;;;15.77;14.33;;;9.20;99.90;;;;;;5006458;28;20191;-78
2023/05/01 04:23:35;;;;;;;16.07;14.67;;;9.20;99.90;;;;;;5004097;28;20195;-80
2023/05/01 04:26:01;;;;;;;15.13;13.70;;;9.20;99.90;;;;;;5002754;28;20215;-81
2023/05/01 04:28:29;;;;;;;15.17;13.70;;;9.20;99.90;;;;;;5001696;28;20184;-80
2023/05/01 04:30:56;;;;;;;14.13;12.23;;;9.20;99.90;;;;;;5001683;28;20180;-81
2023/05/01 04:33:22;;;;;;;12.80;11.67;;;9.20;99.90;;;;;;5000948;28;20216;-80
2023/05/01 04:35:48;;;;;;;12.57;11.57;;;9.30;99.90;;;;;;5002622;28;20295;-80
2023/05/01 04:38:14;;;;;;;13.77;12.47;;;9.30;99.90;;;;;;5002291;28;20231;-81
2023/05/01 04:40:39;;;;;;;14.30;12.90;;;9.30;99.90;;;;;;5002621;28;20311;-80
2023/05/01 04:43:05;;;;;;;13.50;12.20;;;9.30;99.90;;;;;;5006563;28;20168;-80
2023/05/01 04:45:31;;;;;;;11.37;10.37;;;9.40;99.90;;;;;;4989200;28;20220;-81
2023/05/01 04:47:57;;;;;;;11.80;10.80;;;9.40;99.90;;;;;;5008330;28;20180;-80
2023/05/01 04:50:23;;;;;;;13.17;12.00;;;9.40;99.90;;;;;;5014286;28;20189;-80
2023/05/01 04:52:48;;;;;;;12.33;11.13;;;9.50;99.90;;;;;;5013876;28;20188;-80
2023/05/01 04:55:15;;;;;;;12.03;10.97;;;9.60;99.90;;;;;;5013129;28;20213;-80
2023/05/01 04:57:41;;;;;;;11.50;10.53;;;9.60;99.90;;;;;;5014927;28;20284;-79
2023/05/01 05:00:07;;;;;;;12.53;11.23;;;9.60;99.90;;;;;;5012538;28;20191;-79
2023/05/01 05:02:33;;;;;;;17.40;15.80;;;9.70;99.90;;;;;;5017143;28;20172;-80
2023/05/01 05:04:58;;;;;;;19.30;17.77;;;9.70;99.90;;;;;;5016127;28;20193;-79
2023/05/01 05:07:24;;;;;;;18.77;17.50;;;9.70;99.90;;;;;;5010266;28;20228;-80
2023/05/01 05:09:50;;;;;;;19.30;17.90;;;9.60;99.90;;;;;;5006050;28;20192;-81
2023/05/01 05:12:16;;;;;;;17.50;16.07;;;9.70;99.90;;;;;;5005153;28;20184;-80
2023/05/01 05:14:42;;;;;;;14.87;13.80;;;9.80;99.90;;;;;;5004803;28;20180;-80
2023/05/01 05:17:08;;;;;;;17.67;16.27;;;9.80;99.90;;;;;;5005133;28;20471;-81
2023/05/01 05:19:34;;;;;;;16.73;15.33;;;9.90;99.90;;;;;;5006044;28;20184;-79
2023/05/01 05:22:04;;;;;;;20.67;19.17;;;10.00;99.90;;;;;;5006866;28;20180;-80
2023/05/01 05:24:30;;;;;;;13.13;12.13;;;10.00;99.90;;;;;;4996071;28;20177;-79
2023/05/01 05:26:55;;;;;;;14.63;13.47;;;10.10;99.90;;;;;;4988659;28;20212;-81
2023/05/01 05:29:21;;;;;;;16.60;15.43;;;10.10;99.90;;;;;;4986999;28;20181;-80
2023/05/01 05:31:47;;;;;;;14.17;13.17;;;10.20;99.90;;;;;;4996536;28;20177;-80
2023/05/01 05:34:13;;;;;;;11.67;10.53;;;10.20;99.90;;;;;;4990587;28;20256;-79
2023/05/01 05:36:39;;;;;;;11.40;10.40;;;10.30;99.90;;;;;;4988713;28;20206;-80
2023/05/01 05:39:05;;;;;;;23.13;21.40;;;10.40;99.90;;;;;;5004068;28;20204;-81
2023/05/01 05:41:30;;;;;;;44.67;42.10;;;10.50;99.90;;;;;;5005003;28;20180;-82
2023/05/01 05:43:56;;;;;;;56.70;52.00;;;10.50;99.90;;;;;;5002144;28;20181;-81
2023/05/01 05:46:22;;;;;;;57.57;54.33;;;10.50;99.90;;;;;;4995617;28;20196;-77
2023/05/01 05:48:48;;;;;;;45.63;43.10;;;10.60;99.90;;;;;;4996179;28;20184;-78
2023/05/01 05:51:14;;;;;;;20.27;18.97;;;10.70;99.90;;;;;;4995213;28;20203;-77
2023/05/01 05:53:41;;;;;;;13.30;12.37;;;10.70;99.90;;;;;;4998328;28;20188;-77
2023/05/01 05:56:07;;;;;;;15.07;14.07;;;10.70;99.90;;;;;;4996055;28;20623;-78
2023/05/01 05:58:33;;;;;;;14.93;13.83;;;10.80;99.90;;;;;;4998223;28;20240;-77
2023/05/01 06:00:58;;;;;;;11.17;10.37;;;10.90;99.90;;;;;;4999648;28;20230;-78
2023/05/01 06:03:25;;;;;;;10.67;9.67;;;11.00;99.90;;;;;;4998997;28;20203;-78
2023/05/01 06:05:51;;;;;;;10.40;9.60;;;11.00;99.90;;;;;;4989693;28;20203;-79
2023/05/01 06:08:17;;;;;;;9.77;9.00;;;11.10;99.90;;;;;;4977564;28;20184;-78
2023/05/01 06:10:43;;;;;;;10.10;9.33;;;11.20;99.90;;;;;;4988180;28;20284;-77
2023/05/01 06:13:10;;;;;;;9.77;9.03;;;11.30;99.90;;;;;;4986969;28;20193;-79
2023/05/01 06:15:37;;;;;;;13.60;12.60;;;11.40;99.90;;;;;;4973661;28;20573;-77
2023/05/01 06:18:03;;;;;;;14.20;13.20;;;11.50;99.90;;;;;;4974748;28;20205;-76
2023/05/01 06:20:29;;;;;;;22.13;20.83;;;11.60;99.90;;;;;;4977056;28;20187;-78
2023/05/01 06:22:55;;;;;;;38.93;36.63;;;11.70;99.90;;;;;;4982013;28;20695;-78
2023/05/01 06:25:22;;;;;;;36.33;34.10;;;11.80;99.90;;;;;;4994410;28;20184;-76
2023/05/01 06:27:51;;;;;;;32.63;30.67;;;11.80;99.90;;;;;;5010722;28;20194;-77
2023/05/01 06:30:20;;;;;;;26.30;24.80;;;11.90;99.90;;;;;;5011778;28;20196;-77
2023/05/01 06:32:46;;;;;;;14.00;13.03;;;11.90;99.90;;;;;;5004496;28;20192;-77
2023/05/01 06:35:12;;;;;;;10.20;9.40;;;12.00;99.90;;;;;;4983062;28;20185;-77
2023/05/01 06:37:38;;;;;;;10.20;9.47;;;12.00;99.90;;;;;;4977521;28;20563;-76
2023/05/01 06:40:06;;;;;;;10.57;9.77;;;12.10;99.90;;;;;;4993256;28;20183;-77
2023/05/01 06:42:32;;;;;;;10.50;9.70;;;12.10;99.90;;;;;;4993704;28;20188;-77
2023/05/01 06:44:58;;;;;;;10.97;10.17;;;12.00;99.90;;;;;;4994540;28;20239;-77
2023/05/01 06:47:24;;;;;;;9.80;9.00;;;12.00;99.90;;;;;;4993417;28;20201;-77
2023/05/01 06:49:49;;;;;;;9.10;8.27;;;11.90;99.90;;;;;;4975613;28;20191;-77
2023/05/01 06:52:15;;;;;;;11.27;10.50;;;11.90;99.90;;;;;;4974282;28;20173;-77
2023/05/01 06:54:41;;;;;;;10.33;9.57;;;11.90;99.90;;;;;;4974423;28;20656;-77
2023/05/01 06:57:07;;;;;;;10.13;9.13;;;11.80;99.90;;;;;;4973020;28;20594;-77
2023/05/01 06:59:32;;;;;;;12.67;11.73;;;11.80;99.90;;;;;;4972945;28;20223;-77
2023/05/01 07:01:58;;;;;;;15.07;13.70;;;11.80;99.90;;;;;;4972928;28;20185;-77
2023/05/01 07:04:24;;;;;;;16.37;15.33;;;11.80;99.90;;;;;;4992231;28;20188;-77
2023/05/01 07:06:50;;;;;;;25.63;24.00;;;11.80;99.90;;;;;;4992879;28;20204;-77
2023/05/01 07:09:16;;;;;;;22.87;21.37;;;11.80;99.90;;;;;;4993524;28;20224;-77
2023/05/01 07:11:42;;;;;;;28.77;27.17;;;11.90;99.90;;;;;;5003438;28;20637;-78
2023/05/01 07:14:08;;;;;;;30.67;28.77;;;11.90;99.90;;;;;;4999709;28;20267;-77
2023/05/01 07:16:33;;;;;;;26.67;25.07;;;11.90;99.90;;;;;;4992380;28;20216;-78
2023/05/01 07:18:59;;;;;;;26.27;24.83;;;12.00;99.90;;;;;;4992957;28;20296;-77
2023/05/01 07:21:25;;;;;;;26.63;25.10;;;12.00;99.90;;;;;;4994713;28;20184;-78
2023/05/01 07:23:56;;;;;;;17.97;16.70;;;12.00;99.90;;;;;;4993744;28;20267;-77
2023/05/01 07:26:24;;;;;;;22.27;20.67;;;12.00;99.90;;;;;;4992662;28;20226;-76
2023/05/01 07:28:50;;;;;;;24.93;23.20;;;12.00;99.90;;;;;;4991483;28;20187;-77
2023/05/01 07:31:17;;;;;;;26.13;24.53;;;12.00;99.90;;;;;;4999537;28;20184;-72
2023/05/01 07:33:44;;;;;;;25.37;23.77;;;12.00;99.90;;;;;;4994752;28;20185;-72
2023/05/01 07:36:10;;;;;;;26.63;25.07;;;12.10;99.90;;;;;;4993427;28;20211;-73
2023/05/01 07:38:36;;;;;;;21.47;19.90;;;12.10;99.90;;;;;;4985687;28;20208;-73
2023/05/01 07:41:02;;;;;;;26.73;24.83;;;12.10;99.90;;;;;;4973547;28;20680;-75
2023/05/01 07:43:27;;;;;;;27.47;25.97;;;12.10;99.90;;;;;;4971000;28;20653;-74
2023/05/01 07:45:59;;;;;;;20.87;19.43;;;12.10;99.90;;;;;;4970573;28;20255;-74
2023/05/01 07:48:28;;;;;;;28.57;26.93;;;12.10;99.90;;;;;;4971597;28;20661;-73
2023/05/01 07:50:55;;;;;;;30.57;28.87;;;12.20;99.90;;;;;;4973208;28;20259;-74
2023/05/01 07:53:21;;;;;;;44.83;42.03;;;12.10;99.90;;;;;;4973172;28;20748;-75
2023/05/01 07:55:48;;;;;;;49.10;45.80;;;12.20;99.90;;;;;;4973182;28;20685;-75
2023/05/01 07:58:16;;;;;;;44.00;40.60;;;12.40;99.90;;;;;;4971910;28;20213;-75
2023/05/01 08:00:43;;;;;;;46.50;43.33;;;12.60;99.90;;;;;;4989316;28;20671;-74
2023/05/01 08:03:10;;;;;;;41.73;39.33;;;12.70;99.90;;;;;;4991551;28;20208;-74
2023/05/01 08:05:39;;;;;;;42.97;40.53;;;12.80;99.90;;;;;;4991390;28;20180;-74
2023/05/01 08:08:05;;;;;;;42.63;40.20;;;12.70;99.90;;;;;;4991365;28;20189;-74
2023/05/01 08:10:31;;;;;;;39.97;37.63;;;12.70;99.90;;;;;;4991475;28;20382;-74
2023/05/01 08:12:56;;;;;;;33.23;31.33;;;12.70;99.90;;;;;;4991635;28;20249;-73
2023/05/01 08:15:23;;;;;;;26.73;24.90;;;12.90;99.90;;;;;;4971470;28;20223;-74
2023/05/01 08:17:50;;;;;;;15.33;13.87;;;13.00;99.90;;;;;;4972975;28;20220;-74
2023/05/01 08:20:15;;;;;;;13.83;12.50;;;13.20;99.90;;;;;;4973218;28;20204;-74
2023/05/01 08:22:41;;;;;;;9.97;9.03;;;13.40;99.90;;;;;;4973039;28;20220;-72
2023/05/01 08:25:07;;;;;;;10.73;9.83;;;13.60;99.90;;;;;;4973753;28;20173;-73
2023/05/01 08:27:33;;;;;;;9.97;8.53;;;13.60;99.90;;;;;;4976090;28;20204;-73
2023/05/01 08:29:59;;;;;;;8.90;8.07;;;13.90;99.90;;;;;;4992222;28;20328;-73
2023/05/01 08:32:25;;;;;;;9.07;8.27;;;13.90;99.90;;;;;;4992184;28;20184;-73
2023/05/01 08:34:51;;;;;;;8.90;8.20;;;14.00;99.90;;;;;;4990959;28;20692;-73
2023/05/01 08:37:18;;;;;;;9.40;8.60;;;14.00;99.90;;;;;;4991833;28;20208;-73
2023/05/01 08:39:44;;;;;;;9.80;8.80;;;14.10;99.90;;;;;;4991046;28;20215;-73
2023/05/01 08:42:10;;;;;;;10.90;10.20;;;14.40;99.90;;;;;;4984696;28;20185;-73
2023/05/01 08:44:40;;;;;;;20.37;19.07;;;14.70;99.90;;;;;;4971363;28;20177;-73
2023/05/01 08:47:15;;;;;;;21.93;20.33;;;14.70;99.90;;;;;;4971143;28;20205;-73
2023/05/01 08:49:42;;;;;;;19.20;17.77;;;14.80;99.90;;;;;;4972990;28;20594;-73
2023/05/01 08:52:10;;;;;;;18.47;17.27;;;14.80;99.90;;;;;;4972604;28;20667;-73
2023/05/01 08:54:40;;;;;;;19.17;17.67;;;14.70;99.90;;;;;;4972567;28;20177;-73
2023/05/01 08:57:10;;;;;;;15.83;14.73;;;14.90;99.90;;;;;;4985029;28;20196;-72
2023/05/01 08:59:37;;;;;;;19.63;18.40;;;15.00;99.90;;;;;;4990747;28;20212;-73
2023/05/01 09:02:06;;;;;;;18.33;17.13;;;14.90;99.90;;;;;;4990671;28;20259;-73
2023/05/01 09:04:34;;;;;;;21.00;19.77;;;14.90;99.90;;;;;;4990919;28;20180;-74
2023/05/01 09:07:01;;;;;;;15.50;14.40;;;14.70;99.90;;;;;;4991612;28;20266;-74
2023/05/01 09:09:27;;;;;;;14.40;13.40;;;14.60;99.90;;;;;;4990795;28;20259;-74
2023/05/01 09:11:59;;;;;;;17.47;16.40;;;14.70;99.90;;;;;;4973926;28;20310;-73
2023/05/01 09:14:26;;;;;;;17.70;16.53;;;14.90;99.90;;;;;;4971248;28;20267;-73
2023/05/01 09:16:51;;;;;;;20.07;18.80;;;14.90;99.90;;;;;;4972100;28;20303;-76
2023/05/01 09:19:18;;;;;;;30.43;28.70;;;14.90;99.90;;;;;;4973500;28;20653;-76
2023/05/01 09:21:44;;;;;;;37.53;35.40;;;15.00;99.90;;;;;;4975651;28;20184;-76
2023/05/01 09:24:10;;;;;;;32.90;30.80;;;15.00;99.90;;;;;;4977392;28;20276;-77
2023/05/01 09:26:40;;;;;;;38.67;36.47;;;15.20;99.90;;;;;;4997596;28;20204;-75
2023/05/01 09:29:09;;;;;;;50.90;48.03;;;15.50;99.90;;;;;;4997101;28;20216;-74
2023/05/01 09:31:35;;;;;;;61.10;57.80;;;15.80;99.90;;;;;;4996628;28;20184;-74
2023/05/01 09:34:04;;;;;;;43.23;40.90;;;16.00;99.90;;;;;;4996237;28;20192;-77
2023/05/01 09:36:32;;;;;;;16.87;15.77;;;16.20;99.90;;;;;;4994217;28;20289;-76
2023/05/01 09:38:59;;;;;;;11.67;10.77;;;16.40;99.90;;;;;;4986059;28;20232;-75
2023/05/01 09:41:26;;;;;;;10.57;9.77;;;16.40;99.90;;;;;;4986077;28;20659;-76
2023/05/01 09:43:56;;;;;;;11.20;10.30;;;16.40;99.90;;;;;;4995377;28;20544;-75
2023/05/01 09:46:25;;;;;;;12.97;11.97;;;16.60;99.90;;;;;;4994049;28;20210;-77
2023/05/01 09:48:53;;;;;;;12.47;11.57;;;17.10;99.90;;;;;;4994822;28;20180;-76
2023/05/01 09:51:27;;;;;;;11.40;10.57;;;17.60;99.90;;;;;;4994403;28;20807;-76
2023/05/01 09:53:55;;;;;;;9.40;8.23;;;17.90;99.90;;;;;;4995032;28;20648;-76
2023/05/01 09:56:22;;;;;;;9.33;8.43;;;17.90;99.90;;;;;;4979911;28;20213;-76
2023/05/01 09:58:52;;;;;;;9.67;8.77;;;17.80;99.90;;;;;;4974013;28;20216;-76
2023/05/01 10:01:37;;;;;;;8.67;8.07;;;18.10;99.90;;;;;;4975491;28;20243;-76
2023/05/01 10:04:03;;;;;;;12.57;11.53;;;18.70;99.90;;;;;;4975393;28;20200;-76
2023/05/01 10:06:29;;;;;;;10.67;9.90;;;19.10;99.90;;;;;;4975660;28;20197;-75
2023/05/01 10:08:54;;;;;;;11.00;9.43;;;19.30;99.90;;;;;;4976046;28;20192;-75
2023/05/01 10:11:23;;;;;;;10.67;9.97;;;19.20;99.90;;;;;;4994446;28;20722;-77
2023/05/01 10:14:06;;;;;;;10.80;10.00;;;19.40;99.90;;;;;;4994535;28;20220;-76
2023/05/01 10:16:35;;;;;;;12.75;11.95;;;20.00;99.90;;;;;;4994463;28;20279;-76
2023/05/01 10:19:02;;;;;;;8.52;7.78;;;20.70;99.90;;;;;;4994069;28;20208;-76
2023/05/01 10:21:31;;;;;;;10.88;9.98;;;20.50;99.90;;;;;;4993506;28;20672;-76
2023/05/01 10:23:58;;;;;;;11.75;10.73;;;20.50;99.90;;;;;;4984894;28;20264;-76
2023/05/01 10:26:25;;;;;;;11.18;10.18;;;21.10;99.90;;;;;;4974036;28;20207;-76
2023/05/01 10:28:51;;;;;;;9.65;8.77;;;21.60;99.90;;;;;;4974989;28;20187;-76
2023/05/01 10:31:17;;;;;;;9.07;8.43;;;22.00;99.90;;;;;;4973045;28;20185;-76
2023/05/01 10:33:44;;;;;;;8.02;7.53;;;22.20;99.90;;;;;;4974766;28;20185;-76
2023/05/01 10:36:17;;;;;;;7.97;7.47;;;22.10;99.70;;;;;;4973788;28;20721;-76
2023/05/01 10:38:47;;;;;;;10.25;9.45;;;22.00;99.10;;;;;;4986020;28;20208;-75
2023/05/01 10:41:15;;;;;;;14.40;13.43;;;22.50;99.40;;;;;;4994158;28;20554;-75
2023/05/01 10:43:41;;;;;;;12.93;12.02;;;22.80;98.60;;;;;;4994769;28;20184;-75
2023/05/01 10:46:07;;;;;;;12.10;11.30;;;22.70;97.20;;;;;;4993417;28;20569;-74
2023/05/01 10:48:39;;;;;;;16.15;14.65;;;22.30;97.50;;;;;;4992344;28;20176;-75
2023/05/01 10:51:16;;;;;;;13.63;12.63;;;22.30;99.00;;;;;;4992721;28;20184;-74
2023/05/01 10:53:44;;;;;;;11.80;11.10;;;22.40;99.90;;;;;;4988110;28;20195;-72
2023/05/01 10:56:25;;;;;;;12.80;11.73;;;22.40;99.10;;;;;;4974680;28;20205;-75
2023/05/01 10:58:51;;;;;;;15.48;14.38;;;22.00;99.10;;;;;;4973742;28;20225;-75
2023/05/01 11:01:34;;;;;;;15.38;14.48;;;21.40;98.80;;;;;;4989136;28;20667;-73
2023/05/01 11:04:06;;;;;;;10.23;9.23;;;21.10;99.90;;;;;;4993387;28;20180;-72
2023/05/01 11:06:34;;;;;;;8.20;7.40;;;20.70;99.90;;;;;;4992730;28;20204;-73
2023/05/01 11:09:00;;;;;;;8.07;7.50;;;20.80;99.90;;;;;;4992291;28;20188;-72
2023/05/01 11:11:26;;;;;;;9.43;8.75;;;21.20;99.90;;;;;;4993436;28;20192;-73
2023/05/01 11:14:02;;;;;;;10.20;9.32;;;21.80;99.20;;;;;;4991976;28;20631;-75
2023/05/01 11:16:37;;;;;;;11.77;10.80;;;21.40;97.80;;;;;;4992982;28;20227;-72
2023/05/01 11:19:04;;;;;;;10.90;10.05;;;21.60;99.90;;;;;;4992870;28;20212;-72
2023/05/01 11:21:32;;;;;;;10.32;9.63;;;21.30;98.50;;;;;;4979441;28;20243;-73
2023/05/01 11:24:08;;;;;;;10.77;9.93;;;21.10;99.90;;;;;;4973650;28;20239;-72
2023/05/01 11:26:39;;;;;;;11.07;10.25;;;21.00;99.90;;;;;;4973603;28;20320;-74
2023/05/01 11:29:06;;;;;;;17.15;15.38;;;20.80;99.90;;;;;;4973525;28;20546;-72
2023/05/01 11:31:32;;;;;;;9.68;8.80;;;20.50;99.90;;;;;;4972420;28;20184;-71
2023/05/01 11:33:59;;;;;;;7.50;6.90;;;20.30;99.90;;;;;;4972449;28;20189;-71
2023/05/01 11:36:27;;;;;;;7.25;6.70;;;20.30;99.90;;;;;;4992943;28;20204;-71
2023/05/01 11:38:58;;;;;;;7.85;7.32;;;19.80;99.90;;;;;;4992209;28;20714;-73
2023/05/01 11:41:25;;;;;;;13.00;12.05;;;19.40;99.90;;;;;;4989083;28;20192;-71
2023/05/01 11:43:58;;;;;;;13.65;12.85;;;19.40;99.90;;;;;;4993493;28;20192;-72
2023/05/01 11:46:28;;;;;;;14.50;13.43;;;19.00;99.90;;;;;;5008104;28;20343;-72
2023/05/01 11:48:57;;;;;;;13.98;12.98;;;19.00;99.90;;;;;;5004448;28;20185;-72
2023/05/01 11:51:24;;;;;;;14.32;13.52;;;19.00;99.90;;;;;;4992705;28;20263;-71
2023/05/01 11:54:07;;;;;;;13.07;12.23;;;18.80;99.90;;;;;;4992953;28;20223;-76
2023/05/01 11:56:34;;;;;;;8.60;7.93;;;18.50;99.90;;;;;;4991487;28;20208;-74
2023/05/01 11:59:10;;;;;;;8.83;8.23;;;18.40;99.90;;;;;;4994086;28;20216;-72
2023/05/01 12:01:38;;;;;;;9.33;8.43;;;18.40;99.90;;;;;;4999369;28;20176;-72
2023/05/01 12:04:04;;;;;;;8.40;7.60;;;18.40;99.90;;;;;;5000006;28;20180;-77
2023/05/01 12:06:39;;;;;;;10.20;9.60;;;18.30;99.90;;;;;;4996765;28;20652;-76
2023/05/01 12:09:09;;;;;;;9.10;8.43;;;18.40;99.90;;;;;;4994632;28;20548;-76
2023/05/01 12:11:35;;;;;;;8.97;8.27;;;18.40;99.90;;;;;;4996293;28;20192;-76
2023/05/01 12:14:01;;;;;;;10.93;10.13;;;18.30;99.90;;;;;;5005328;28;20186;-77
2023/05/01 12:16:28;;;;;;;8.60;7.80;;;18.50;99.90;;;;;;5010646;28;20318;-75
2023/05/01 12:18:54;;;;;;;9.37;8.67;;;18.60;99.90;;;;;;4972470;28;20219;-77
2023/05/01 12:21:20;;;;;;;9.07;8.47;;;18.70;99.90;;;;;;4971483;28;20216;-77
2023/05/01 12:23:46;;;;;;;9.83;9.10;;;18.90;99.90;;;;;;4972400;28;20595;-77
2023/05/01 12:26:22;;;;;;;12.97;11.87;;;19.20;99.90;;;;;;4972289;28;20209;-77
2023/05/01 12:28:55;;;;;;;14.37;13.10;;;19.60;99.90;;;;;;4971322;28;20193;-77
2023/05/01 12:31:22;;;;;;;15.18;14.00;;;19.40;99.90;;;;;;4976927;28;20192;-76
2023/05/01 12:34:03;;;;;;;14.70;13.80;;;19.60;99.90;;;;;;4982306;28;20650;-78
2023/05/01 12:36:31;;;;;;;13.20;12.18;;;19.60;99.90;;;;;;4973222;28;20208;-77
2023/05/01 12:39:08;;;;;;;13.23;12.15;;;19.80;99.90;;;;;;4972887;28;20267;-77
2023/05/01 12:41:50;;;;;;;13.88;12.90;;;20.00;99.90;;;;;;4973910;28;20180;-77
2023/05/01 12:44:21;;;;;;;12.30;11.52;;;19.90;99.90;;;;;;4972639;28;20185;-78
2023/05/01 12:46:55;;;;;;;12.90;12.10;;;20.00;99.90;;;;;;4987642;28;20207;-76
2023/05/01 12:49:22;;;;;;;8.18;7.65;;;20.20;99.90;;;;;;4992216;28;20183;-76
2023/05/01 12:51:52;;;;;;;9.45;7.15;;;20.30;99.50;;;;;;4992894;28;20554;-77
2023/05/01 12:54:24;;;;;;;6.65;6.25;;;20.50;99.40;;;;;;4991530;28;20188;-77
2023/05/01 12:56:53;;;;;;;7.90;7.40;;;20.80;99.90;;;;;;4992899;28;20704;-76
2023/05/01 12:59:25;;;;;;;8.23;7.72;;;20.80;97.90;;;;;;4994336;28;20270;-77
2023/05/01 13:02:18;;;;;;;9.27;8.68;;;20.90;96.80;;;;;;4997176;28;20191;-77
2023/05/01 13:04:45;;;;;;;8.25;7.75;;;20.90;98.20;;;;;;4991322;28;20676;-77
2023/05/01 13:07:13;;;;;;;8.57;7.93;;;21.00;97.00;;;;;;4990151;28;20201;-77
2023/05/01 13:09:49;;;;;;;7.22;6.72;;;21.10;96.60;;;;;;4991316;28;20196;-77
2023/05/01 13:12:15;;;;;;;7.00;6.60;;;21.30;97.00;;;;;;4990732;28;20207;-77
2023/05/01 13:14:42;;;;;;;6.90;6.43;;;22.00;94.60;;;;;;4980193;28;20185;-77
2023/05/01 13:17:11;;;;;;;6.50;6.00;;;22.40;94.90;;;;;;4971945;28;20359;-78
2023/05/01 13:19:38;;;;;;;8.48;7.88;;;22.10;93.50;;;;;;4974138;28;20252;-77
2023/05/01 13:22:05;;;;;;;7.13;6.63;;;22.10;95.80;;;;;;4971976;28;20324;-76
2023/05/01 13:24:40;;;;;;;7.45;6.75;;;21.70;94.20;;;;;;4971048;28;20783;-77
2023/05/01 13:27:11;;;;;;;6.68;6.07;;;21.20;94.20;;;;;;4970565;28;20200;-76
2023/05/01 13:29:38;;;;;;;9.52;8.90;;;21.00;94.40;;;;;;4987881;28;20188;-75
2023/05/01 13:32:05;;;;;;;9.65;9.05;;;20.80;95.80;;;;;;4990350;28;20191;-75
2023/05/01 13:34:32;;;;;;;9.55;8.85;;;21.00;95.40;;;;;;4991347;28;20194;-75
2023/05/01 13:37:00;;;;;;;11.10;10.30;;;21.20;95.80;;;;;;4989957;28;20208;-73
2023/05/01 13:39:26;;;;;;;9.57;8.88;;;21.20;95.30;;;;;;4990127;28;20218;-73
2023/05/01 13:41:53;;;;;;;10.63;9.77;;;21.50;94.60;;;;;;4988528;28;20185;-73
2023/05/01 13:44:20;;;;;;;11.75;10.82;;;21.40;94.70;;;;;;4970896;28;20185;-73
2023/05/01 13:46:47;;;;;;;15.75;14.15;;;21.30;94.70;;;;;;4970932;28;20289;-73
2023/05/01 13:49:13;;;;;;;21.05;18.92;;;20.90;95.20;;;;;;4971991;28;20252;-73
2023/05/01 13:51:42;;;;;;;16.98;15.23;;;20.80;95.60;;;;;;4970732;28;20216;-73
2023/05/01 13:54:12;;;;;;;11.88;10.73;;;20.40;96.20;;;;;;4970682;28;20195;-73
2023/05/01 13:56:40;;;;;;;10.30;9.50;;;20.10;96.90;;;;;;4977387;28;20200;-71
2023/05/01 13:59:07;;;;;;;10.25;9.38;;;19.90;98.00;;;;;;4989586;28;20223;-73
2023/05/01 14:01:46;;;;;;;8.85;8.15;;;19.80;98.90;;;;;;4990378;28;20192;-73
2023/05/01 14:04:17;;;;;;;9.65;8.95;;;19.40;99.00;;;;;;4990561;28;20246;-73
2023/05/01 14:06:45;;;;;;;12.77;11.97;;;19.20;98.70;;;;;;4991882;28;20287;-73
2023/05/01 14:09:11;;;;;;;15.05;14.05;;;19.00;99.40;;;;;;4994487;28;20660;-73
2023/05/01 14:11:45;;;;;;;14.37;13.47;;;19.00;99.70;;;;;;4981991;28;20197;-73
2023/05/01 14:14:14;;;;;;;15.63;14.53;;;18.80;99.90;;;;;;4973963;28;20243;-73
2023/05/01 14:16:41;;;;;;;14.20;13.30;;;18.70;99.80;;;;;;4975011;28;20303;-73
2023/05/01 14:19:07;;;;;;;13.63;12.57;;;18.70;99.70;;;;;;4974845;28;20213;-73
2023/05/01 14:21:39;;;;;;;14.00;13.10;;;18.70;99.90;;;;;;4975383;28;20184;-73
2023/05/01 14:24:07;;;;;;;10.90;10.10;;;18.50;99.90;;;;;;4974965;28;20228;-73
2023/05/01 14:26:32;;;;;;;11.37;10.47;;;18.20;99.90;;;;;;4993025;28;20613;-75
2023/05/01 14:28:58;;;;;;;10.10;9.20;;;18.10;99.90;;;;;;4993913;28;20267;-75
2023/05/01 14:31:26;;;;;;;23.30;21.80;;;18.00;99.90;;;;;;4994351;28;20180;-75
2023/05/01 14:34:03;;;;;;;31.07;29.13;;;17.90;99.90;;;;;;4993207;28;20628;-74
2023/05/01 14:36:31;;;;;;;29.73;27.67;;;17.70;99.90;;;;;;4992990;28;20215;-73
2023/05/01 14:39:01;;;;;;;26.87;25.30;;;17.50;99.90;;;;;;4992735;28;20236;-72
2023/05/01 14:41:28;;;;;;;30.97;29.23;;;17.50;99.90;;;;;;4977637;28;20177;-73
2023/05/01 14:43:54;;;;;;;27.77;25.97;;;17.60;99.90;;;;;;4976738;28;20521;-72
2023/05/01 14:46:28;;;;;;;27.50;25.93;;;17.60;99.90;;;;;;4977176;28;20201;-73
2023/05/01 14:48:54;;;;;;;28.87;26.77;;;17.70;99.90;;;;;;4974379;28;20185;-73
2023/05/01 14:51:20;;;;;;;27.87;26.30;;;17.90;99.90;;;;;;4974624;28;20559;-72
2023/05/01 14:53:45;;;;;;;26.83;25.33;;;17.90;99.90;;;;;;4983051;28;20188;-75
2023/05/01 14:56:11;;;;;;;28.57;26.77;;;18.00;99.90;;;;;;4993465;28;20267;-72
2023/05/01 14:58:37;;;;;;;36.17;34.23;;;18.10;99.90;;;;;;4993466;28;20219;-73
2023/05/01 15:01:04;;;;;;;42.60;40.07;;;18.10;99.90;;;;;;4993997;28;20184;-75
2023/05/01 15:03:30;;;;;;;49.33;46.53;;;17.90;99.90;;;;;;4992586;28;20181;-73
2023/05/01 15:05:56;;;;;;;50.90;48.00;;;17.80;99.90;;;;;;4993780;28;20263;-72
2023/05/01 15:08:23;;;;;;;52.20;49.40;;;17.80;99.90;;;;;;4980743;28;20675;-73
2023/05/01 15:10:51;;;;;;;52.87;49.97;;;17.80;99.90;;;;;;4974428;28;20276;-72
2023/05/01 15:13:16;;;;;;;49.10;46.40;;;17.90;99.90;;;;;;4973329;28;20276;-73
2023/05/01 15:15:42;;;;;;;57.13;54.10;;;17.90;99.90;;;;;;4974344;28;20295;-75
2023/05/01 15:18:08;;;;;;;46.07;43.50;;;17.90;99.90;;;;;;4973173;28;20259;-74
2023/05/01 15:20:34;;;;;;;41.00;38.80;;;17.80;99.90;;;;;;4973031;28;20850;-75
2023/05/01 15:22:59;;;;;;;45.07;42.53;;;17.90;99.90;;;;;;4974122;28;20268;-75
2023/05/01 15:25:25;;;;;;;39.30;37.13;;;18.00;99.90;;;;;;4973341;28;20185;-75
2023/05/01 15:27:51;;;;;;;44.80;42.00;;;18.00;99.90;;;;;;4972659;28;20283;-75
2023/05/01 15:30:17;;;;;;;41.53;39.30;;;18.00;99.90;;;;;;4974005;28;20611;-75
2023/05/01 15:32:43;;;;;;;48.87;46.07;;;18.00;99.90;;;;;;4973842;28;20563;-76
2023/05/01 15:35:09;;;;;;;46.97;44.40;;;17.90;99.90;;;;;;4973788;28;20184;-75